Terminal Aerodrome Forecast
Issued by NWS

Home | Current Version | Previous Version | Text Only | Print | Product List | Glossary On
Versions: 1 2 3 4 5 6 7 8 9 10 11 12 13 14 15 16 17 18 19 20 21 22 23 24
597
FTAK31 PAJN 251340 AAB
TAFAYA
TAF AMD
PAYA 251340Z 2514/2612 08004KT 6SM -RA BR OVC008
      TEMPO 2514/2518 1SM BR OVC003
     FM251800 21007KT 3SM RA BR OVC007
      AMD LTD TO CLD VIS AND WIND 2601/2609=

USA.gov is the U.S. government's official web portal to all federal, state and local government web resources and services.